x

Halifax Harbour (44258) Wave Buoy

9:00pm - Mon 20th Feb 2017 All times are EST. -5 hours from GMT.

  • Sig Wave height 3.0ft
  • Peak Period 8s
  • Wind
    22mph, 31mph gusts
  • Sea Temp 33°f
  • Air Temp 29°f
  • Sea Pressure 1020.6mb
  • Halifax Harbour
  • Halifax Harbour

More Historic Weather Station data

Upgrade to MSW Pro to gain access to the past 30 days of data for over 8000 Wavebouys and Weather Stations around the globe.

Join Pro

Comparision Forecast

View Surf forecast
   
Mon 02/20 9:00pm 3ft 8s 22 31 mph 1020.6mb 33f 29f
8:00pm 3.5ft 4s 25 31 mph 1020.2mb 33f 29f
7:00pm 3.5ft 9s 25 31 mph 1019.5mb 33f 29f
6:00pm 3.5ft 9s 29 34 mph 1018.5mb 34f 29f
5:00pm 3.5ft 9s 25 31 mph 1017.6mb 34f 30f
4:00pm 3.5ft 9s 25 29 mph 1016.2mb 34f 31f
3:00pm 3.5ft 9s 22 29 mph 1015.1mb 34f 32f
2:00pm 3.5ft 9s 20 27 mph 1013.9mb 34f 33f
1:00pm 3.5ft 9s 20 25 mph 1013.5mb 34f 33f
12:00pm 3.5ft 8s 20 22 mph 1013.2mb 34f 33f
11:00am 3.5ft 9s 18 22 mph 1013.3mb 34f 32f
10:00am 4ft 10s 18 22 mph 1013.3mb 34f 32f
9:00am 3.5ft 9s 18 22 mph 1012.8mb 34f 31f
8:00am 4ft 10s 16 18 mph 1012.1mb 34f 31f
7:00am 3.5ft 10s 16 18 mph 1011.3mb 34f 31f
6:00am 4ft 8s 13 18 mph 1010.2mb 34f 32f
5:00am 3.5ft 8s 13 18 mph 1009.4mb 34f 33f
4:00am 3.5ft 8s 13 18 mph 1008.6mb 34f 34f
3:00am 3.5ft 9s 9 11 mph 1007.5mb 34f 34f
2:00am 4ft 9s 9 11 mph 1007.2mb 34f 34f
1:00am 3.5ft 7s 9 11 mph 1007mb 34f 35f
12:00am 4.5ft 7s 9
mph
1006.3mb 34f 36f
Sun 02/19 11:00pm 4ft 8s 9
mph
1006mb 34f 37f
10:00pm 4.5ft 8s 4
mph
1005.6mb 34f 35f
9:00pm 4.5ft 8s 4
mph
1005.5mb 34f 37f
8:00pm 4.5ft 8s 4 7 mph 1005.2mb 34f 38f
7:00pm 5ft 8s 4 7 mph 1005.1mb 34f 36f
6:00pm 5ft 8s 9 11 mph 1004.6mb 34f 36f
5:00pm 5.5ft 8s 9 11 mph 1003.9mb 34f 35f
4:00pm 5.5ft 8s 9 11 mph 1003mb 34f 36f
3:00pm 5ft 10s 7
mph
1001.8mb 34f 40f
2:00pm 5.5ft 9s 9 11 mph 1001mb 34f 37f
1:00pm 5.5ft 9s 13 16 mph 1000.6mb 34f 36f
12:00pm 6ft 8s 11 13 mph 1000mb 34f 36f
11:00am 6ft 9s 9 11 mph 1000.3mb 34f 37f
10:00am 6ft 9s 13
mph
1000.2mb 34f 36f
9:00am 5ft 8s 13 16 mph 1000.1mb 34f 36f
8:00am 4ft 8s 13 16 mph 999.8mb 33f 35f
7:00am 3.5ft 9s 18 22 mph 999mb 33f 35f
6:00am 3.5ft 9s 11 16 mph 997.9mb 33f 35f
5:00am 4ft 9s 13 16 mph 997.4mb 33f 36f
4:00am 4ft 9s 11 13 mph 997mb 33f 35f
3:00am 4ft 10s 16 18 mph 996.4mb 33f 36f
2:00am 4.5ft 10s 11 13 mph 996.8mb 33f 35f
1:00am 4.5ft 10s 16 18 mph 997.3mb 33f 36f
12:00am 4.5ft 10s 16 20 mph 998.5mb 33f 37f
Sat 02/18 11:00pm 4.5ft 10s 13 16 mph 999.7mb 33f 36f
10:00pm 4.5ft 10s 16 18 mph 1001.1mb 33f 35f
9:00pm 4.5ft 10s 18 22 mph 1001.8mb 33f 36f
8:00pm 4.5ft 12s 18 22 mph 1002mb 33f 35f
7:00pm 5ft 9s 18 20 mph 1002.9mb 33f 34f
6:00pm 5ft 9s 18 22 mph 1003.9mb 33f 34f
5:00pm 5ft 10s 18 22 mph 1004mb 33f 34f
4:00pm 4.5ft 10s 13 16 mph 1004.1mb 33f 34f
3:00pm 5ft 10s 13 18 mph 1004.4mb 33f 34f
2:00pm 5ft 10s 18 20 mph 1004.3mb 33f 34f
1:00pm 4.5ft 10s 13 18 mph 1004.4mb 33f 33f
12:00pm 5ft 10s 13 16 mph 1004.8mb 33f 32f
11:00am 4.5ft 10s 13 18 mph 1005.5mb 33f 31f
10:00am 4.5ft 11s 13 16 mph 1005.4mb 33f 30f
9:00am 5ft 11s 13 18 mph 1005.2mb 33f 29f
8:00am 4.5ft 10s 13 18 mph 1005.1mb 33f 27f
7:00am 5ft 11s 22 27 mph 1004.1mb 33f 28f
6:00am 4.5ft 10s 18 22 mph 1003.8mb 33f 28f
5:00am 5ft 11s 18 20 mph 1003.2mb 33f 28f
4:00am 5ft 10s 18 22 mph 1002.4mb 33f 28f
3:00am 4.5ft 10s 18 20 mph 1001.3mb 33f 29f
2:00am 5ft 10s 18 20 mph 1000.6mb 33f 29f
1:00am 5.5ft 11s 16 18 mph 999.8mb 33f 30f
12:00am 5.5ft 11s 16 18 mph 999.1mb 33f 31f
Fri 02/17 11:00pm 5.5ft 10s 18 25 mph 998.2mb 33f 32f
10:00pm 6.5ft 11s 18 20 mph 997.7mb 33f 32f
9:00pm 6.5ft 10s 16 18 mph 997.3mb 33f 32f
8:00pm 6.5ft 11s 16 20 mph 996.5mb 33f 33f
7:00pm 7ft 11s 16 20 mph 995.8mb 33f 32f
6:00pm 7ft 11s 16 20 mph 994.9mb 33f 32f
5:00pm 7ft 11s 16 18 mph 994mb 33f 31f
4:00pm 6.5ft 12s 20 25 mph 992.7mb 33f 31f
3:00pm 6.5ft 12s 18 22 mph 991.8mb 33f 30f
2:00pm 6ft 10s 18 22 mph 991mb 33f 30f
1:00pm  -   -  20
mph
- - 30f
12:00pm 6ft 11s 20 25 mph 989.7mb 33f 30f
11:00am 7.5ft 12s 22 27 mph 989.8mb 33f 30f
10:00am 7.5ft 12s 22 29 mph 989.8mb 33f 30f
9:00am 7.5ft 11s 18 25 mph 989.8mb 33f 30f
8:00am 8ft 12s 20 25 mph 989.9mb 33f 29f
7:00am 8ft 12s 22 25 mph 989.1mb 33f 28f
6:00am 8ft 12s 22 27 mph 988.4mb 33f 28f
5:00am 8.5ft 12s 22 27 mph 987.8mb 33f 28f
4:00am 9ft 12s 22 27 mph 987.3mb 33f 28f